sensor_id;sensor_type;location;lat;lon;timestamp;P1;durP1;ratioP1;P2;durP2;ratioP2
32469;SDS011;18925;48.356;10.864;2022-12-10T00:00:14;140.75;;;54.65;;
32469;SDS011;18925;48.356;10.864;2022-12-10T00:00:45;129.52;;;51.75;;
32469;SDS011;18925;48.356;10.864;2022-12-10T00:01:17;149.80;;;54.08;;
32469;SDS011;18925;48.356;10.864;2022-12-10T00:01:49;140.65;;;53.40;;
32469;SDS011;18925;48.356;10.864;2022-12-10T00:02:21;134.77;;;53.95;;
32469;SDS011;18925;48.356;10.864;2022-12-10T00:02:52;126.68;;;51.78;;
32469;SDS011;18925;48.356;10.864;2022-12-10T00:03:23;126.53;;;51.00;;
32469;SDS011;18925;48.356;10.864;2022-12-10T00:03:53;151.18;;;55.17;;
32469;SDS011;18925;48.356;10.864;2022-12-10T00:04:24;134.07;;;52.90;;
32469;SDS011;18925;48.356;10.864;2022-12-10T00:04:55;139.48;;;53.13;;
32469;SDS011;18925;48.356;10.864;2022-12-10T00:05:25;136.60;;;53.15;;
32469;SDS011;18925;48.356;10.864;2022-12-10T00:05:59;140.45;;;53.92;;
32469;SDS011;18925;48.356;10.864;2022-12-10T00:06:33;141.10;;;52.90;;
32469;SDS011;18925;48.356;10.864;2022-12-10T00:07:05;138.00;;;51.58;;
32469;SDS011;18925;48.356;10.864;2022-12-10T00:07:36;125.85;;;50.33;;
32469;SDS011;18925;48.356;10.864;2022-12-10T00:08:06;135.88;;;52.47;;
32469;SDS011;18925;48.356;10.864;2022-12-10T00:08:37;142.80;;;52.90;;
32469;SDS011;18925;48.356;10.864;2022-12-10T00:09:12;162.23;;;56.22;;
32469;SDS011;18925;48.356;10.864;2022-12-10T00:09:44;160.35;;;54.10;;
32469;SDS011;18925;48.356;10.864;2022-12-10T00:10:15;152.05;;;53.75;;
32469;SDS011;18925;48.356;10.864;2022-12-10T00:10:46;132.65;;;53.22;;
32469;SDS011;18925;48.356;10.864;2022-12-10T00:11:17;145.43;;;55.17;;
32469;SDS011;18925;48.356;10.864;2022-12-10T00:11:49;127.72;;;51.95;;
32469;SDS011;18925;48.356;10.864;2022-12-10T00:12:20;153.93;;;53.58;;
32469;SDS011;18925;48.356;10.864;2022-12-10T00:12:50;123.90;;;51.80;;
32469;SDS011;18925;48.356;10.864;2022-12-10T00:13:21;137.23;;;51.85;;
32469;SDS011;18925;48.356;10.864;2022-12-10T00:13:52;125.85;;;53.00;;
32469;SDS011;18925;48.356;10.864;2022-12-10T00:14:24;144.20;;;54.35;;
32469;SDS011;18925;48.356;10.864;2022-12-10T00:14:54;132.73;;;52.13;;
32469;SDS011;18925;48.356;10.864;2022-12-10T00:15:25;130.32;;;52.28;;
32469;SDS011;18925;48.356;10.864;2022-12-10T00:15:58;130.07;;;52.53;;
32469;SDS011;18925;48.356;10.864;2022-12-10T00:16:33;139.93;;;51.47;;
32469;SDS011;18925;48.356;10.864;2022-12-10T00:17:04;133.57;;;51.72;;
32469;SDS011;18925;48.356;10.864;2022-12-10T00:17:34;136.90;;;52.72;;
32469;SDS011;18925;48.356;10.864;2022-12-10T00:18:05;145.45;;;53.78;;
32469;SDS011;18925;48.356;10.864;2022-12-10T00:18:36;131.15;;;51.40;;
32469;SDS011;18925;48.356;10.864;2022-12-10T00:19:07;141.23;;;53.75;;
32469;SDS011;18925;48.356;10.864;2022-12-10T00:19:38;124.32;;;51.63;;
32469;SDS011;18925;48.356;10.864;2022-12-10T00:20:09;133.88;;;51.50;;
32469;SDS011;18925;48.356;10.864;2022-12-10T00:20:40;122.53;;;50.30;;
32469;SDS011;18925;48.356;10.864;2022-12-10T00:21:12;127.68;;;50.90;;
32469;SDS011;18925;48.356;10.864;2022-12-10T00:21:47;121.35;;;49.95;;
32469;SDS011;18925;48.356;10.864;2022-12-10T00:22:18;130.52;;;49.95;;
32469;SDS011;18925;48.356;10.864;2022-12-10T00:22:49;121.28;;;49.97;;
32469;SDS011;18925;48.356;10.864;2022-12-10T00:23:19;134.32;;;51.25;;
32469;SDS011;18925;48.356;10.864;2022-12-10T00:23:50;129.75;;;50.28;;
32469;SDS011;18925;48.356;10.864;2022-12-10T00:24:21;130.50;;;49.92;;
32469;SDS011;18925;48.356;10.864;2022-12-10T00:24:51;123.65;;;49.50;;
32469;SDS011;18925;48.356;10.864;2022-12-10T00:25:22;124.47;;;51.78;;
32469;SDS011;18925;48.356;10.864;2022-12-10T00:25:53;126.32;;;50.97;;
32469;SDS011;18925;48.356;10.864;2022-12-10T00:26:25;139.32;;;52.03;;
32469;SDS011;18925;48.356;10.864;2022-12-10T00:27:00;141.93;;;52.35;;
32469;SDS011;18925;48.356;10.864;2022-12-10T00:27:31;126.75;;;50.88;;
32469;SDS011;18925;48.356;10.864;2022-12-10T00:28:01;126.60;;;49.75;;
32469;SDS011;18925;48.356;10.864;2022-12-10T00:28:32;117.22;;;49.10;;
32469;SDS011;18925;48.356;10.864;2022-12-10T00:29:04;119.68;;;48.88;;
32469;SDS011;18925;48.356;10.864;2022-12-10T00:29:36;123.78;;;49.70;;
32469;SDS011;18925;48.356;10.864;2022-12-10T00:30:07;125.55;;;49.55;;
32469;SDS011;18925;48.356;10.864;2022-12-10T00:30:38;119.65;;;49.33;;
32469;SDS011;18925;48.356;10.864;2022-12-10T00:31:10;129.95;;;50.10;;
32469;SDS011;18925;48.356;10.864;2022-12-10T00:31:44;125.75;;;50.35;;
32469;SDS011;18925;48.356;10.864;2022-12-10T00:32:14;130.90;;;49.97;;
32469;SDS011;18925;48.356;10.864;2022-12-10T00:32:45;127.45;;;49.00;;
32469;SDS011;18925;48.356;10.864;2022-12-10T00:33:16;122.85;;;49.83;;
32469;SDS011;18925;48.356;10.864;2022-12-10T00:33:47;128.43;;;49.50;;
32469;SDS011;18925;48.356;10.864;2022-12-10T00:34:18;124.75;;;50.30;;
32469;SDS011;18925;48.356;10.864;2022-12-10T00:34:48;131.65;;;50.58;;
32469;SDS011;18925;48.356;10.864;2022-12-10T00:35:19;139.50;;;52.03;;
32469;SDS011;18925;48.356;10.864;2022-12-10T00:35:49;109.82;;;48.78;;
32469;SDS011;18925;48.356;10.864;2022-12-10T00:36:21;116.88;;;50.10;;
32469;SDS011;18925;48.356;10.864;2022-12-10T00:36:53;133.48;;;53.22;;
32469;SDS011;18925;48.356;10.864;2022-12-10T00:37:24;129.15;;;51.55;;
32469;SDS011;18925;48.356;10.864;2022-12-10T00:37:55;124.47;;;50.30;;
32469;SDS011;18925;48.356;10.864;2022-12-10T00:38:25;127.13;;;51.17;;
32469;SDS011;18925;48.356;10.864;2022-12-10T00:38:56;134.15;;;51.92;;
32469;SDS011;18925;48.356;10.864;2022-12-10T00:39:27;129.15;;;50.05;;
32469;SDS011;18925;48.356;10.864;2022-12-10T00:39:58;133.27;;;52.72;;
32469;SDS011;18925;48.356;10.864;2022-12-10T00:40:29;128.13;;;51.50;;
32469;SDS011;18925;48.356;10.864;2022-12-10T00:41:00;118.03;;;49.05;;
32469;SDS011;18925;48.356;10.864;2022-12-10T00:41:31;125.95;;;50.95;;
32469;SDS011;18925;48.356;10.864;2022-12-10T00:42:02;125.38;;;48.67;;
32469;SDS011;18925;48.356;10.864;2022-12-10T00:42:32;121.43;;;49.75;;
32469;SDS011;18925;48.356;10.864;2022-12-10T00:43:03;135.05;;;53.80;;
32469;SDS011;18925;48.356;10.864;2022-12-10T00:43:34;136.30;;;52.08;;
32469;SDS011;18925;48.356;10.864;2022-12-10T00:44:05;113.57;;;50.53;;
32469;SDS011;18925;48.356;10.864;2022-12-10T00:44:36;128.70;;;50.65;;
32469;SDS011;18925;48.356;10.864;2022-12-10T00:45:06;133.40;;;52.03;;
32469;SDS011;18925;48.356;10.864;2022-12-10T00:45:37;125.40;;;49.72;;
32469;SDS011;18925;48.356;10.864;2022-12-10T00:46:08;124.78;;;49.75;;
32469;SDS011;18925;48.356;10.864;2022-12-10T00:46:39;136.30;;;51.38;;
32469;SDS011;18925;48.356;10.864;2022-12-10T00:47:10;126.28;;;50.25;;
32469;SDS011;18925;48.356;10.864;2022-12-10T00:47:41;124.55;;;49.65;;
32469;SDS011;18925;48.356;10.864;2022-12-10T00:48:11;112.07;;;50.03;;
32469;SDS011;18925;48.356;10.864;2022-12-10T00:48:42;133.68;;;49.70;;
32469;SDS011;18925;48.356;10.864;2022-12-10T00:49:14;133.25;;;49.40;;
32469;SDS011;18925;48.356;10.864;2022-12-10T00:49:44;122.45;;;49.38;;
32469;SDS011;18925;48.356;10.864;2022-12-10T00:50:15;127.15;;;49.58;;
32469;SDS011;18925;48.356;10.864;2022-12-10T00:50:58;135.52;;;51.30;;
32469;SDS011;18925;48.356;10.864;2022-12-10T00:51:30;127.60;;;49.58;;
32469;SDS011;18925;48.356;10.864;2022-12-10T00:52:01;119.03;;;49.42;;
32469;SDS011;18925;48.356;10.864;2022-12-10T00:52:32;139.70;;;51.50;;
32469;SDS011;18925;48.356;10.864;2022-12-10T00:53:02;130.02;;;49.92;;
32469;SDS011;18925;48.356;10.864;2022-12-10T00:53:33;129.07;;;49.97;;
32469;SDS011;18925;48.356;10.864;2022-12-10T00:54:05;131.70;;;52.55;;
32469;SDS011;18925;48.356;10.864;2022-12-10T00:54:36;143.13;;;51.58;;
32469;SDS011;18925;48.356;10.864;2022-12-10T00:55:06;142.68;;;51.50;;
32469;SDS011;18925;48.356;10.864;2022-12-10T00:55:37;137.30;;;50.40;;
32469;SDS011;18925;48.356;10.864;2022-12-10T00:56:08;138.57;;;51.78;;
32469;SDS011;18925;48.356;10.864;2022-12-10T00:56:40;152.73;;;54.00;;
32469;SDS011;18925;48.356;10.864;2022-12-10T00:57:11;130.25;;;51.65;;
32469;SDS011;18925;48.356;10.864;2022-12-10T00:57:41;136.35;;;51.38;;
32469;SDS011;18925;48.356;10.864;2022-12-10T00:58:12;145.23;;;53.97;;
32469;SDS011;18925;48.356;10.864;2022-12-10T00:58:43;127.07;;;51.55;;
32469;SDS011;18925;48.356;10.864;2022-12-10T00:59:14;136.18;;;50.97;;
32469;SDS011;18925;48.356;10.864;2022-12-10T00:59:44;120.65;;;50.38;;
32469;SDS011;18925;48.356;10.864;2022-12-10T01:00:15;118.70;;;49.13;;
32469;SDS011;18925;48.356;10.864;2022-12-10T01:00:46;115.57;;;48.10;;
32469;SDS011;18925;48.356;10.864;2022-12-10T01:01:51;127.30;;;51.40;;
32469;SDS011;18925;48.356;10.864;2022-12-10T01:02:21;124.53;;;50.53;;
32469;SDS011;18925;48.356;10.864;2022-12-10T01:02:52;109.30;;;48.55;;
32469;SDS011;18925;48.356;10.864;2022-12-10T01:03:23;120.75;;;50.05;;
32469;SDS011;18925;48.356;10.864;2022-12-10T01:03:55;119.82;;;49.83;;
32469;SDS011;18925;48.356;10.864;2022-12-10T01:04:27;106.85;;;49.22;;
32469;SDS011;18925;48.356;10.864;2022-12-10T01:04:57;137.88;;;53.00;;
32469;SDS011;18925;48.356;10.864;2022-12-10T01:05:28;120.57;;;49.13;;
32469;SDS011;18925;48.356;10.864;2022-12-10T01:06:07;122.88;;;50.08;;
32469;SDS011;18925;48.356;10.864;2022-12-10T01:06:46;120.22;;;47.75;;
32469;SDS011;18925;48.356;10.864;2022-12-10T01:07:19;126.57;;;50.40;;
32469;SDS011;18925;48.356;10.864;2022-12-10T01:07:50;126.53;;;49.75;;
32469;SDS011;18925;48.356;10.864;2022-12-10T01:08:22;119.28;;;48.72;;
32469;SDS011;18925;48.356;10.864;2022-12-10T01:08:54;124.18;;;48.95;;
32469;SDS011;18925;48.356;10.864;2022-12-10T01:09:27;124.47;;;50.42;;
32469;SDS011;18925;48.356;10.864;2022-12-10T01:09:58;131.05;;;50.47;;
32469;SDS011;18925;48.356;10.864;2022-12-10T01:10:29;132.63;;;51.75;;
32469;SDS011;18925;48.356;10.864;2022-12-10T01:11:00;117.85;;;50.70;;
32469;SDS011;18925;48.356;10.864;2022-12-10T01:11:32;128.18;;;50.40;;
32469;SDS011;18925;48.356;10.864;2022-12-10T01:12:09;123.50;;;50.85;;
32469;SDS011;18925;48.356;10.864;2022-12-10T01:12:40;122.95;;;51.38;;
32469;SDS011;18925;48.356;10.864;2022-12-10T01:13:11;126.65;;;50.95;;
32469;SDS011;18925;48.356;10.864;2022-12-10T01:13:42;125.68;;;48.63;;
32469;SDS011;18925;48.356;10.864;2022-12-10T01:14:15;145.23;;;53.50;;
32469;SDS011;18925;48.356;10.864;2022-12-10T01:14:51;126.57;;;50.28;;
32469;SDS011;18925;48.356;10.864;2022-12-10T01:15:22;135.30;;;51.00;;
32469;SDS011;18925;48.356;10.864;2022-12-10T01:15:53;137.35;;;51.97;;
32469;SDS011;18925;48.356;10.864;2022-12-10T01:16:23;132.32;;;52.03;;
32469;SDS011;18925;48.356;10.864;2022-12-10T01:16:56;123.85;;;51.47;;
32469;SDS011;18925;48.356;10.864;2022-12-10T01:17:34;141.30;;;52.35;;
32469;SDS011;18925;48.356;10.864;2022-12-10T01:18:05;114.53;;;48.60;;
32469;SDS011;18925;48.356;10.864;2022-12-10T01:18:36;135.07;;;52.47;;
32469;SDS011;18925;48.356;10.864;2022-12-10T01:19:07;112.95;;;48.25;;
32469;SDS011;18925;48.356;10.864;2022-12-10T01:19:37;121.57;;;49.60;;
32469;SDS011;18925;48.356;10.864;2022-12-10T01:20:08;112.55;;;50.38;;
32469;SDS011;18925;48.356;10.864;2022-12-10T01:20:39;121.25;;;50.05;;
32469;SDS011;18925;48.356;10.864;2022-12-10T01:21:11;104.35;;;47.97;;
32469;SDS011;18925;48.356;10.864;2022-12-10T01:21:44;112.65;;;48.38;;
32469;SDS011;18925;48.356;10.864;2022-12-10T01:22:15;112.90;;;49.25;;
32469;SDS011;18925;48.356;10.864;2022-12-10T01:22:45;114.75;;;50.15;;
32469;SDS011;18925;48.356;10.864;2022-12-10T01:23:16;113.32;;;49.80;;
32469;SDS011;18925;48.356;10.864;2022-12-10T01:23:48;122.70;;;51.50;;
32469;SDS011;18925;48.356;10.864;2022-12-10T01:24:20;123.88;;;51.80;;
32469;SDS011;18925;48.356;10.864;2022-12-10T01:24:51;131.38;;;52.58;;
32469;SDS011;18925;48.356;10.864;2022-12-10T01:25:22;116.20;;;50.72;;
32469;SDS011;18925;48.356;10.864;2022-12-10T01:25:53;124.30;;;52.30;;
32469;SDS011;18925;48.356;10.864;2022-12-10T01:26:24;119.65;;;50.50;;
32469;SDS011;18925;48.356;10.864;2022-12-10T01:26:57;110.97;;;49.65;;
32469;SDS011;18925;48.356;10.864;2022-12-10T01:27:28;119.97;;;50.20;;
32469;SDS011;18925;48.356;10.864;2022-12-10T01:27:58;117.18;;;49.60;;
32469;SDS011;18925;48.356;10.864;2022-12-10T01:28:30;109.90;;;50.47;;
32469;SDS011;18925;48.356;10.864;2022-12-10T01:29:02;122.72;;;52.72;;
32469;SDS011;18925;48.356;10.864;2022-12-10T01:29:34;110.15;;;48.83;;
32469;SDS011;18925;48.356;10.864;2022-12-10T01:30:04;114.80;;;49.53;;
32469;SDS011;18925;48.356;10.864;2022-12-10T01:30:35;126.13;;;50.92;;
32469;SDS011;18925;48.356;10.864;2022-12-10T01:31:16;121.43;;;51.47;;
32469;SDS011;18925;48.356;10.864;2022-12-10T01:31:52;117.07;;;48.75;;
32469;SDS011;18925;48.356;10.864;2022-12-10T01:32:24;129.68;;;48.75;;
32469;SDS011;18925;48.356;10.864;2022-12-10T01:32:55;115.68;;;50.55;;
32469;SDS011;18925;48.356;10.864;2022-12-10T01:33:25;128.43;;;52.08;;
32469;SDS011;18925;48.356;10.864;2022-12-10T01:33:57;126.72;;;52.58;;
32469;SDS011;18925;48.356;10.864;2022-12-10T01:34:28;119.55;;;52.60;;
32469;SDS011;18925;48.356;10.864;2022-12-10T01:34:59;123.82;;;53.70;;
32469;SDS011;18925;48.356;10.864;2022-12-10T01:35:29;126.95;;;53.58;;
32469;SDS011;18925;48.356;10.864;2022-12-10T01:36:03;143.82;;;54.95;;
32469;SDS011;18925;48.356;10.864;2022-12-10T01:36:36;131.30;;;53.75;;
32469;SDS011;18925;48.356;10.864;2022-12-10T01:37:11;128.07;;;53.38;;
32469;SDS011;18925;48.356;10.864;2022-12-10T01:37:42;144.10;;;55.13;;
32469;SDS011;18925;48.356;10.864;2022-12-10T01:38:12;131.70;;;55.63;;
32469;SDS011;18925;48.356;10.864;2022-12-10T01:38:43;122.38;;;53.20;;
32469;SDS011;18925;48.356;10.864;2022-12-10T01:39:15;127.07;;;55.42;;
32469;SDS011;18925;48.356;10.864;2022-12-10T01:39:46;128.45;;;56.05;;
32469;SDS011;18925;48.356;10.864;2022-12-10T01:40:17;133.60;;;54.97;;
32469;SDS011;18925;48.356;10.864;2022-12-10T01:40:47;113.28;;;54.85;;
32469;SDS011;18925;48.356;10.864;2022-12-10T01:41:20;138.18;;;57.13;;
32469;SDS011;18925;48.356;10.864;2022-12-10T01:41:53;128.23;;;54.92;;
32469;SDS011;18925;48.356;10.864;2022-12-10T01:42:26;135.75;;;57.60;;
32469;SDS011;18925;48.356;10.864;2022-12-10T01:42:57;131.75;;;56.35;;
32469;SDS011;18925;48.356;10.864;2022-12-10T01:43:27;140.65;;;56.42;;
32469;SDS011;18925;48.356;10.864;2022-12-10T01:45:19;113.80;;;52.72;;
32469;SDS011;18925;48.356;10.864;2022-12-10T01:45:50;130.85;;;54.83;;
32469;SDS011;18925;48.356;10.864;2022-12-10T01:46:21;128.98;;;55.72;;
32469;SDS011;18925;48.356;10.864;2022-12-10T01:46:55;115.82;;;52.78;;
32469;SDS011;18925;48.356;10.864;2022-12-10T01:47:27;126.05;;;55.63;;
32469;SDS011;18925;48.356;10.864;2022-12-10T01:47:58;121.55;;;54.60;;
32469;SDS011;18925;48.356;10.864;2022-12-10T01:48:29;117.38;;;54.03;;
32469;SDS011;18925;48.356;10.864;2022-12-10T01:49:00;145.27;;;57.70;;
32469;SDS011;18925;48.356;10.864;2022-12-10T01:49:37;123.57;;;55.47;;
32469;SDS011;18925;48.356;10.864;2022-12-10T01:50:09;121.78;;;55.08;;
32469;SDS011;18925;48.356;10.864;2022-12-10T01:50:40;110.07;;;53.60;;
32469;SDS011;18925;48.356;10.864;2022-12-10T01:51:11;121.25;;;54.50;;
32469;SDS011;18925;48.356;10.864;2022-12-10T01:51:44;109.68;;;52.53;;
32469;SDS011;18925;48.356;10.864;2022-12-10T01:52:16;110.82;;;51.47;;
32469;SDS011;18925;48.356;10.864;2022-12-10T01:52:47;112.18;;;53.33;;
32469;SDS011;18925;48.356;10.864;2022-12-10T01:53:18;108.22;;;52.90;;
32469;SDS011;18925;48.356;10.864;2022-12-10T01:53:49;127.82;;;58.30;;
32469;SDS011;18925;48.356;10.864;2022-12-10T01:54:21;116.28;;;54.75;;
32469;SDS011;18925;48.356;10.864;2022-12-10T01:54:55;120.78;;;56.15;;
32469;SDS011;18925;48.356;10.864;2022-12-10T01:56:19;131.15;;;53.88;;
32469;SDS011;18925;48.356;10.864;2022-12-10T01:56:54;126.63;;;56.67;;
32469;SDS011;18925;48.356;10.864;2022-12-10T01:57:30;116.80;;;55.60;;
32469;SDS011;18925;48.356;10.864;2022-12-10T01:58:01;124.43;;;53.58;;
32469;SDS011;18925;48.356;10.864;2022-12-10T01:58:32;128.20;;;57.47;;
32469;SDS011;18925;48.356;10.864;2022-12-10T01:59:03;125.78;;;57.28;;
32469;SDS011;18925;48.356;10.864;2022-12-10T01:59:35;125.50;;;56.72;;
32469;SDS011;18925;48.356;10.864;2022-12-10T02:00:07;123.25;;;56.67;;
32469;SDS011;18925;48.356;10.864;2022-12-10T02:00:38;133.45;;;58.35;;
32469;SDS011;18925;48.356;10.864;2022-12-10T02:02:23;113.70;;;52.45;;
32469;SDS011;18925;48.356;10.864;2022-12-10T02:03:18;120.00;;;54.65;;
32469;SDS011;18925;48.356;10.864;2022-12-10T02:04:00;117.63;;;52.03;;
32469;SDS011;18925;48.356;10.864;2022-12-10T02:04:47;117.75;;;53.83;;
32469;SDS011;18925;48.356;10.864;2022-12-10T02:05:49;113.65;;;52.90;;
32469;SDS011;18925;48.356;10.864;2022-12-10T02:10:39;101.07;;;49.38;;
32469;SDS011;18925;48.356;10.864;2022-12-10T02:11:17;112.00;;;50.83;;
32469;SDS011;18925;48.356;10.864;2022-12-10T02:12:45;125.63;;;55.45;;
32469;SDS011;18925;48.356;10.864;2022-12-10T02:13:38;106.55;;;51.80;;
32469;SDS011;18925;48.356;10.864;2022-12-10T02:15:04;111.63;;;53.72;;
32469;SDS011;18925;48.356;10.864;2022-12-10T02:15:40;107.30;;;52.75;;
32469;SDS011;18925;48.356;10.864;2022-12-10T02:16:29;107.00;;;51.78;;
32469;SDS011;18925;48.356;10.864;2022-12-10T02:17:14;105.75;;;52.25;;
32469;SDS011;18925;48.356;10.864;2022-12-10T02:17:56;112.38;;;52.20;;
32469;SDS011;18925;48.356;10.864;2022-12-10T02:19:35;100.13;;;52.72;;
32469;SDS011;18925;48.356;10.864;2022-12-10T02:20:17;117.68;;;55.42;;
32469;SDS011;18925;48.356;10.864;2022-12-10T02:20:52;103.25;;;52.00;;
32469;SDS011;18925;48.356;10.864;2022-12-10T02:21:32;108.00;;;51.75;;
32469;SDS011;18925;48.356;10.864;2022-12-10T02:22:05;103.05;;;51.72;;
32469;SDS011;18925;48.356;10.864;2022-12-10T02:22:38;100.15;;;50.63;;
32469;SDS011;18925;48.356;10.864;2022-12-10T02:23:16;100.00;;;51.35;;
32469;SDS011;18925;48.356;10.864;2022-12-10T02:23:56;118.75;;;54.70;;
32469;SDS011;18925;48.356;10.864;2022-12-10T02:24:30;112.15;;;51.97;;
32469;SDS011;18925;48.356;10.864;2022-12-10T02:25:05;106.05;;;54.55;;
32469;SDS011;18925;48.356;10.864;2022-12-10T02:25:55;107.43;;;53.47;;
32469;SDS011;18925;48.356;10.864;2022-12-10T02:27:04;114.88;;;53.38;;
32469;SDS011;18925;48.356;10.864;2022-12-10T02:27:44;103.78;;;52.05;;
32469;SDS011;18925;48.356;10.864;2022-12-10T02:28:25;110.35;;;51.67;;
32469;SDS011;18925;48.356;10.864;2022-12-10T02:29:18;105.18;;;50.97;;
32469;SDS011;18925;48.356;10.864;2022-12-10T02:29:50;104.82;;;52.42;;
32469;SDS011;18925;48.356;10.864;2022-12-10T02:30:25;113.90;;;51.53;;
32469;SDS011;18925;48.356;10.864;2022-12-10T02:30:57;106.07;;;53.22;;
32469;SDS011;18925;48.356;10.864;2022-12-10T02:31:29;101.88;;;52.38;;
32469;SDS011;18925;48.356;10.864;2022-12-10T02:32:17;107.03;;;53.72;;
32469;SDS011;18925;48.356;10.864;2022-12-10T02:32:52;105.32;;;52.38;;
32469;SDS011;18925;48.356;10.864;2022-12-10T02:33:24;112.63;;;53.70;;
32469;SDS011;18925;48.356;10.864;2022-12-10T02:33:58;102.35;;;52.97;;
32469;SDS011;18925;48.356;10.864;2022-12-10T02:34:35;104.45;;;53.92;;
32469;SDS011;18925;48.356;10.864;2022-12-10T02:35:12;108.07;;;50.95;;
32469;SDS011;18925;48.356;10.864;2022-12-10T02:35:49;105.35;;;52.13;;
32469;SDS011;18925;48.356;10.864;2022-12-10T02:36:21;101.90;;;52.45;;
32469;SDS011;18925;48.356;10.864;2022-12-10T02:36:55;104.45;;;52.30;;
32469;SDS011;18925;48.356;10.864;2022-12-10T02:37:31;105.00;;;51.50;;
32469;SDS011;18925;48.356;10.864;2022-12-10T02:38:16;92.88;;;49.25;;
32469;SDS011;18925;48.356;10.864;2022-12-10T02:38:51;105.43;;;51.30;;
32469;SDS011;18925;48.356;10.864;2022-12-10T02:39:24;98.70;;;50.67;;
32469;SDS011;18925;48.356;10.864;2022-12-10T02:40:00;95.03;;;52.35;;
32469;SDS011;18925;48.356;10.864;2022-12-10T02:40:35;88.97;;;47.38;;
32469;SDS011;18925;48.356;10.864;2022-12-10T02:41:09;97.65;;;50.85;;
32469;SDS011;18925;48.356;10.864;2022-12-10T02:41:46;95.00;;;49.88;;
32469;SDS011;18925;48.356;10.864;2022-12-10T02:42:21;97.07;;;50.05;;
32469;SDS011;18925;48.356;10.864;2022-12-10T02:42:55;114.68;;;54.33;;
32469;SDS011;18925;48.356;10.864;2022-12-10T02:43:26;103.95;;;52.35;;
32469;SDS011;18925;48.356;10.864;2022-12-10T02:43:59;96.93;;;51.63;;
32469;SDS011;18925;48.356;10.864;2022-12-10T02:44:33;101.68;;;52.08;;
32469;SDS011;18925;48.356;10.864;2022-12-10T02:45:07;108.80;;;54.72;;
32469;SDS011;18925;48.356;10.864;2022-12-10T02:45:38;89.43;;;50.08;;
32469;SDS011;18925;48.356;10.864;2022-12-10T02:46:11;101.05;;;51.22;;
32469;SDS011;18925;48.356;10.864;2022-12-10T02:46:42;107.97;;;54.08;;
32469;SDS011;18925;48.356;10.864;2022-12-10T02:47:16;106.65;;;53.35;;
32469;SDS011;18925;48.356;10.864;2022-12-10T02:47:48;93.95;;;50.30;;
32469;SDS011;18925;48.356;10.864;2022-12-10T02:48:20;100.60;;;53.00;;
32469;SDS011;18925;48.356;10.864;2022-12-10T02:48:52;103.85;;;52.13;;
32469;SDS011;18925;48.356;10.864;2022-12-10T02:49:23;95.95;;;52.20;;
32469;SDS011;18925;48.356;10.864;2022-12-10T02:49:56;112.25;;;54.42;;
32469;SDS011;18925;48.356;10.864;2022-12-10T02:50:28;117.20;;;54.38;;
32469;SDS011;18925;48.356;10.864;2022-12-10T02:50:59;109.45;;;54.03;;
32469;SDS011;18925;48.356;10.864;2022-12-10T02:51:30;113.15;;;55.40;;
32469;SDS011;18925;48.356;10.864;2022-12-10T02:52:07;106.45;;;52.47;;
32469;SDS011;18925;48.356;10.864;2022-12-10T02:52:39;98.53;;;51.28;;
32469;SDS011;18925;48.356;10.864;2022-12-10T02:53:10;110.10;;;53.92;;
32469;SDS011;18925;48.356;10.864;2022-12-10T02:53:41;108.10;;;54.10;;
32469;SDS011;18925;48.356;10.864;2022-12-10T02:55:22;97.80;;;50.28;;
32469;SDS011;18925;48.356;10.864;2022-12-10T02:56:08;111.55;;;54.15;;
32469;SDS011;18925;48.356;10.864;2022-12-10T02:56:51;93.47;;;48.35;;
32469;SDS011;18925;48.356;10.864;2022-12-10T02:58:11;92.55;;;49.58;;
32469;SDS011;18925;48.356;10.864;2022-12-10T02:58:53;106.88;;;53.80;;
32469;SDS011;18925;48.356;10.864;2022-12-10T03:00:03;107.93;;;52.88;;
32469;SDS011;18925;48.356;10.864;2022-12-10T03:00:46;99.82;;;49.38;;
32469;SDS011;18925;48.356;10.864;2022-12-10T03:02:29;93.28;;;49.58;;
32469;SDS011;18925;48.356;10.864;2022-12-10T03:03:25;96.05;;;48.03;;
32469;SDS011;18925;48.356;10.864;2022-12-10T03:04:05;100.47;;;48.92;;
32469;SDS011;18925;48.356;10.864;2022-12-10T03:06:16;96.50;;;50.42;;
32469;SDS011;18925;48.356;10.864;2022-12-10T03:06:54;90.78;;;48.53;;
32469;SDS011;18925;48.356;10.864;2022-12-10T03:07:36;93.28;;;49.83;;
32469;SDS011;18925;48.356;10.864;2022-12-10T03:08:17;105.55;;;49.55;;
32469;SDS011;18925;48.356;10.864;2022-12-10T03:08:56;100.68;;;50.42;;
32469;SDS011;18925;48.356;10.864;2022-12-10T03:09:34;100.28;;;51.25;;
32469;SDS011;18925;48.356;10.864;2022-12-10T03:10:20;111.00;;;54.58;;
32469;SDS011;18925;48.356;10.864;2022-12-10T03:11:14;108.53;;;50.38;;
32469;SDS011;18925;48.356;10.864;2022-12-10T03:11:47;117.40;;;54.55;;
32469;SDS011;18925;48.356;10.864;2022-12-10T03:12:22;107.13;;;52.50;;
32469;SDS011;18925;48.356;10.864;2022-12-10T03:13:00;112.53;;;55.97;;
32469;SDS011;18925;48.356;10.864;2022-12-10T03:13:36;110.07;;;53.85;;
32469;SDS011;18925;48.356;10.864;2022-12-10T03:14:13;119.03;;;54.80;;
32469;SDS011;18925;48.356;10.864;2022-12-10T03:14:49;104.28;;;52.22;;
32469;SDS011;18925;48.356;10.864;2022-12-10T03:15:20;108.50;;;52.85;;
32469;SDS011;18925;48.356;10.864;2022-12-10T03:15:54;107.28;;;53.63;;
32469;SDS011;18925;48.356;10.864;2022-12-10T03:16:28;104.55;;;52.90;;
32469;SDS011;18925;48.356;10.864;2022-12-10T03:17:05;106.57;;;53.40;;
32469;SDS011;18925;48.356;10.864;2022-12-10T03:17:37;104.97;;;53.60;;
32469;SDS011;18925;48.356;10.864;2022-12-10T03:18:09;112.60;;;54.75;;
32469;SDS011;18925;48.356;10.864;2022-12-10T03:18:41;107.78;;;55.20;;
32469;SDS011;18925;48.356;10.864;2022-12-10T03:19:16;113.13;;;54.17;;
32469;SDS011;18925;48.356;10.864;2022-12-10T03:19:49;116.38;;;55.97;;
32469;SDS011;18925;48.356;10.864;2022-12-10T03:20:21;120.80;;;57.45;;
32469;SDS011;18925;48.356;10.864;2022-12-10T03:20:54;105.30;;;53.03;;
32469;SDS011;18925;48.356;10.864;2022-12-10T03:21:33;112.13;;;56.08;;
32469;SDS011;18925;48.356;10.864;2022-12-10T03:22:07;113.20;;;53.53;;
32469;SDS011;18925;48.356;10.864;2022-12-10T03:22:42;101.60;;;53.30;;
32469;SDS011;18925;48.356;10.864;2022-12-10T03:23:16;121.88;;;55.15;;
32469;SDS011;18925;48.356;10.864;2022-12-10T03:23:48;112.35;;;55.38;;
32469;SDS011;18925;48.356;10.864;2022-12-10T03:24:20;110.22;;;55.67;;
32469;SDS011;18925;48.356;10.864;2022-12-10T03:24:52;111.32;;;54.75;;
32469;SDS011;18925;48.356;10.864;2022-12-10T03:25:24;112.57;;;55.42;;
32469;SDS011;18925;48.356;10.864;2022-12-10T03:25:57;101.40;;;53.38;;
32469;SDS011;18925;48.356;10.864;2022-12-10T03:26:29;104.85;;;54.33;;